Hauptseite
METAR-TAF:

METAR-TAF

Flughäfen :

Flughafen Stockholm-Västerås

Västerås, Schweden

Breite: 59-35N, Länge: 016-38E, Höhe: 6 m

Beobachtung

Neuester Wetterbericht von vor 43 Minuten, um 17:20 UTC
Wind 10 kt aus Ost/Südost, variierte zwischen Ost/Nordost und Südost
Temperatur 21°C
Luftfeuchtigkeit 46%
Luftdruck 1020 hPa
Sichtweite 10 km oder mehr

METAR: ESOW 231720Z AUTO 11010KT 070V130 9999 SCT100/// 21/09 Q1020

Zeit: 20:03 (18:03 UTC)

Prognose

Neuester Wetterbericht von vor 6 Stunden und 33 Minuten, um 11:30 UTC
Gültige Prognose vom 23 um 12 UTC bis 23 um 15 UTC
Wind 13 kt aus Ost/Südost
Sichtweite 10 km oder mehr
keine Wolken unter 1500 m und keine Kumulonimbus oder Gewitterwolken

TAF: ESOW 231130Z 2312/2315 11013KT CAVOK

Wetterbeobachtungen und Prognosen von mehr als 4000 Flughäfen (METAR und TAF Bericht).

Die verfügbaren Stationen werden durch gelbe und rote Markierungen auf der Karte dargestellt.

Führen Sie die Maus auf sie, um den Namen der Station zu sehen.

Darauf klicken, um die Beobachtung von Wetterbeobachtungen und Prognosen zu sehen.

Um die Karte zu ändern : klicken Sie auf den grünen Tasten mit einem schwarzen Kreuz Zum Vergrößern, auf den grünen Button mit einem Gedankenstrich zu verkleinern, oder auf die grünen Pfeile für benachbarte Karten.


METAR-TAF: